Time;durP1;ratioP1;P1;durP2;ratioP2;P2;SDS_P1;SDS_P2;PMS_P1;PMS_P2;Temp;Humidity;BMP_temperature;BMP_pressure;BME280_temperature;BME280_humidity;BME280_pressure;Samples;Min_cycle;Max_cycle;Signal;HPM_P1;HPM_P2
2022/04/26 06:49:47;;;;;;;4.43;3.97;;;10.80;99.90;;;;;;5021463;23;20181;-91
2022/04/26 06:52:12;;;;;;;4.35;3.80;;;10.80;99.90;;;;;;4998667;28;20061;-91
2022/04/26 06:54:38;;;;;;;3.20;3.00;;;10.80;99.90;;;;;;5000082;28;20105;-91
2022/04/26 06:57:04;;;;;;;3.30;3.00;;;10.70;99.90;;;;;;5005948;28;20037;-92
2022/04/26 06:59:29;;;;;;;3.92;3.53;;;10.70;99.90;;;;;;5005164;28;20022;-91
2022/04/26 07:01:55;;;;;;;5.55;4.32;;;10.70;99.90;;;;;;4998760;28;20022;-93
2022/04/26 07:04:22;;;;;;;4.68;3.75;;;10.70;99.90;;;;;;4998955;28;20028;-92
2022/04/26 07:06:48;;;;;;;4.57;3.92;;;10.70;99.90;;;;;;5009129;28;20041;-92
2022/04/26 07:09:14;;;;;;;4.18;3.63;;;10.80;99.90;;;;;;5000702;28;20042;-92
2022/04/26 07:11:42;;;;;;;4.32;3.92;;;10.80;99.90;;;;;;5000311;28;20057;-92
2022/04/26 07:14:11;;;;;;;4.40;4.00;;;10.80;99.90;;;;;;5004822;28;20022;-92
2022/04/26 07:16:38;;;;;;;4.78;3.83;;;10.80;99.90;;;;;;5005061;28;20015;-91
2022/04/26 07:19:03;;;;;;;4.50;4.10;;;10.70;99.90;;;;;;5001219;28;20030;-92
2022/04/26 07:21:29;;;;;;;5.45;4.68;;;10.70;99.90;;;;;;5000640;28;20033;-92
2022/04/26 07:23:54;;;;;;;5.50;5.00;;;10.70;99.90;;;;;;5001783;28;20061;-92
2022/04/26 07:26:20;;;;;;;5.68;4.68;;;10.70;99.90;;;;;;4997214;28;20030;-92
2022/04/26 07:28:45;;;;;;;4.43;4.03;;;10.70;99.90;;;;;;4999872;28;20026;-92
2022/04/26 07:31:11;;;;;;;6.90;4.70;;;10.70;99.90;;;;;;4999725;28;20030;-92
2022/04/26 07:36:22;;;;;;;6.95;5.65;;;10.70;99.90;;;;;;5007153;28;20053;-91
2022/04/26 07:38:51;;;;;;;6.78;5.25;;;10.80;99.90;;;;;;5002285;28;20439;-91
2022/04/26 07:41:17;;;;;;;3.85;3.55;;;10.80;99.90;;;;;;4995476;28;20025;-92
2022/04/26 07:43:44;;;;;;;4.45;4.05;;;10.80;99.90;;;;;;4982242;28;20499;-91
2022/04/26 07:46:13;;;;;;;4.07;3.67;;;10.80;99.90;;;;;;4996631;28;20022;-91
2022/04/26 07:48:41;;;;;;;6.07;5.55;;;10.80;99.90;;;;;;5016186;28;20029;-91
2022/04/26 07:51:08;;;;;;;4.97;4.47;;;10.80;99.90;;;;;;4991852;28;20471;-92
2022/04/26 07:53:34;;;;;;;4.60;4.20;;;10.80;99.90;;;;;;4988723;28;20133;-91
2022/04/26 07:56:00;;;;;;;3.80;3.47;;;10.80;99.90;;;;;;4987601;28;20038;-91
2022/04/26 07:58:26;;;;;;;4.60;3.95;;;10.80;99.90;;;;;;4980949;28;20014;-91
2022/04/26 08:00:51;;;;;;;3.30;2.97;;;10.70;99.90;;;;;;4980752;28;20022;-91
2022/04/26 08:03:20;;;;;;;2.83;2.63;;;10.70;99.90;;;;;;4980905;28;20064;-91
2022/04/26 08:05:46;;;;;;;3.58;3.28;;;10.70;99.90;;;;;;5001303;28;20057;-91
2022/04/26 08:08:12;;;;;;;7.13;5.45;;;10.80;99.90;;;;;;4990677;28;20023;-91
2022/04/26 08:10:37;;;;;;;5.05;4.13;;;10.80;99.90;;;;;;5008878;28;20033;-92
2022/04/26 08:13:03;;;;;;;3.88;3.42;;;10.90;99.90;;;;;;5011914;28;20037;-92
2022/04/26 08:15:29;;;;;;;3.55;3.17;;;10.90;99.90;;;;;;5004628;28;20034;-92
2022/04/26 08:17:55;;;;;;;3.30;3.00;;;11.10;99.90;;;;;;5000029;28;20033;-92
2022/04/26 08:20:22;;;;;;;3.40;3.10;;;11.20;99.90;;;;;;4999070;28;20022;-91
2022/04/26 08:22:48;;;;;;;3.35;3.05;;;11.20;99.90;;;;;;4995806;28;20037;-92
2022/04/26 08:27:58;;;;;;;3.55;2.83;;;11.50;99.90;;;;;;5005919;28;20073;-92
2022/04/26 08:30:23;;;;;;;2.30;2.10;;;11.80;99.90;;;;;;4988592;28;20049;-91
2022/04/26 08:32:50;;;;;;;2.90;2.22;;;11.90;99.90;;;;;;5010410;28;20568;-92
2022/04/26 08:35:19;;;;;;;2.50;2.30;;;11.80;99.90;;;;;;4996655;28;20022;-92
2022/04/26 08:37:45;;;;;;;4.43;4.03;;;12.00;99.90;;;;;;4986939;28;20018;-91
2022/04/26 08:40:11;;;;;;;2.80;2.60;;;12.00;99.90;;;;;;4998301;28;20037;-93
2022/04/26 08:42:39;;;;;;;2.90;2.70;;;11.90;99.90;;;;;;4987279;28;20022;-92
2022/04/26 08:45:06;;;;;;;3.00;2.78;;;11.90;99.90;;;;;;4979987;28;20029;-92
2022/04/26 08:53:01;;;;;;;23.15;12.98;;;11.60;99.90;;;;;;4993992;28;20065;-88
2022/04/26 08:55:27;;;;;;;3.63;3.22;;;11.50;99.90;;;;;;4976211;28;20022;-88
2022/04/26 08:57:53;;;;;;;3.70;3.40;;;11.50;99.90;;;;;;4975875;28;20027;-88
2022/04/26 09:00:19;;;;;;;3.30;2.78;;;11.40;99.90;;;;;;4976585;28;20018;-88
2022/04/26 09:03:02;;;;;;;3.20;2.90;;;11.30;99.90;;;;;;4989026;28;20121;-87
2022/04/26 09:05:28;;;;;;;3.05;2.80;;;11.20;99.90;;;;;;4972804;28;20022;-88
2022/04/26 09:07:54;;;;;;;3.17;2.88;;;11.20;99.90;;;;;;4956799;28;20106;-88
2022/04/26 09:10:20;;;;;;;3.25;2.70;;;11.10;99.90;;;;;;4957347;28;20126;-88
2022/04/26 09:13:07;;;;;;;2.83;2.63;;;11.10;99.90;;;;;;4979868;28;20022;-88
2022/04/26 09:15:54;;;;;;;4.50;2.75;;;11.10;99.90;;;;;;4975721;28;20027;-87
2022/04/26 09:18:24;;;;;;;2.97;2.78;;;11.10;99.90;;;;;;4992204;28;20027;-88
2022/04/26 09:20:53;;;;;;;3.53;3.22;;;11.10;99.90;;;;;;4976146;28;20027;-88
2022/04/26 09:23:25;;;;;;;3.70;3.03;;;11.10;99.90;;;;;;4992447;28;20084;-88
2022/04/26 09:25:58;;;;;;;5.30;4.35;;;11.10;99.90;;;;;;4975788;28;20030;-88
2022/04/26 09:28:27;;;;;;;4.68;4.25;;;11.10;99.90;;;;;;5002045;28;20038;-89
2022/04/26 09:30:54;;;;;;;4.82;4.32;;;11.10;99.90;;;;;;4981820;28;20038;-88
2022/04/26 09:33:38;;;;;;;5.60;4.65;;;11.10;99.90;;;;;;4979327;28;20030;-89
2022/04/26 09:36:09;;;;;;;6.30;5.05;;;11.10;99.90;;;;;;4972480;28;20062;-88
2022/04/26 09:38:36;;;;;;;5.82;4.82;;;11.30;99.90;;;;;;4957176;28;20022;-88
2022/04/26 09:41:09;;;;;;;5.07;4.57;;;11.40;99.90;;;;;;4957508;28;20034;-88
2022/04/26 09:43:36;;;;;;;6.45;5.60;;;11.40;99.90;;;;;;4969538;28;20045;-87
2022/04/26 09:46:03;;;;;;;6.03;5.30;;;11.40;99.90;;;;;;4993265;28;20029;-88
2022/04/26 09:48:35;;;;;;;6.43;5.60;;;11.40;99.90;;;;;;4992366;28;20053;-88
2022/04/26 09:51:02;;;;;;;6.43;5.68;;;11.40;99.90;;;;;;4976143;28;20043;-88
2022/04/26 09:53:29;;;;;;;7.05;5.70;;;11.40;99.90;;;;;;4979876;28;20042;-88
2022/04/26 09:55:59;;;;;;;6.97;6.18;;;11.40;99.90;;;;;;4996401;28;20113;-88
2022/04/26 09:58:29;;;;;;;7.43;5.93;;;11.50;99.90;;;;;;4997375;28;20026;-89
2022/04/26 10:01:01;;;;;;;6.63;5.72;;;11.50;99.90;;;;;;4980416;28;20037;-88
2022/04/26 10:03:31;;;;;;;7.15;5.82;;;11.50;99.90;;;;;;4979348;28;20038;-88
2022/04/26 10:06:03;;;;;;;6.15;5.45;;;11.60;99.90;;;;;;4976736;28;20026;-89
2022/04/26 10:08:34;;;;;;;6.03;5.40;;;11.70;99.90;;;;;;4969243;28;20054;-88
2022/04/26 10:11:02;;;;;;;8.00;6.13;;;11.80;99.90;;;;;;4977868;28;20121;-88
2022/04/26 10:13:39;;;;;;;7.03;6.32;;;11.90;99.90;;;;;;4983728;28;20022;-90
2022/04/26 10:16:11;;;;;;;7.80;6.55;;;12.00;99.90;;;;;;5009056;28;20010;-90
2022/04/26 10:18:45;;;;;;;8.10;6.10;;;12.00;99.90;;;;;;5001079;28;20033;-88
2022/04/26 10:21:12;;;;;;;11.25;7.03;;;11.90;99.90;;;;;;4978318;28;20019;-87
2022/04/26 10:24:01;;;;;;;9.95;7.13;;;11.90;99.90;;;;;;4976788;28;20026;-87
2022/04/26 10:26:27;;;;;;;8.48;6.32;;;11.80;99.90;;;;;;4979957;28;20029;-87
2022/04/26 10:29:16;;;;;;;9.07;7.07;;;11.80;99.90;;;;;;4976929;28;20162;-85
2022/04/26 10:31:42;;;;;;;7.18;6.20;;;11.80;99.90;;;;;;4983879;28;20041;-87
2022/04/26 10:34:17;;;;;;;10.23;7.05;;;11.90;99.90;;;;;;4978384;28;20034;-87
2022/04/26 10:36:49;;;;;;;8.93;6.82;;;11.90;99.90;;;;;;5012422;28;20123;-85
2022/04/26 10:39:30;;;;;;;8.55;6.82;;;11.90;99.90;;;;;;4988854;28;20513;-88
2022/04/26 10:41:56;;;;;;;7.88;6.70;;;11.90;99.90;;;;;;4986833;28;20061;-87
2022/04/26 10:44:24;;;;;;;9.02;6.72;;;12.00;99.90;;;;;;4979298;28;20022;-90
2022/04/26 10:46:53;;;;;;;8.05;6.82;;;12.10;99.90;;;;;;4976183;28;20034;-91
2022/04/26 10:49:24;;;;;;;7.85;6.60;;;12.20;99.90;;;;;;4978383;28;20128;-89
2022/04/26 10:51:57;;;;;;;6.78;6.03;;;12.20;99.90;;;;;;4977748;28;20030;-89
2022/04/26 10:55:03;;;;;;;6.85;6.13;;;12.30;99.90;;;;;;4978732;28;20081;-88
2022/04/26 10:57:34;;;;;;;6.78;5.88;;;12.50;99.90;;;;;;4974136;28;20106;-88
2022/04/26 11:00:04;;;;;;;5.90;5.25;;;12.60;99.90;;;;;;4983107;28;20054;-88
2022/04/26 11:02:33;;;;;;;8.95;6.35;;;12.60;99.90;;;;;;4972232;28;20023;-88
2022/04/26 11:05:08;;;;;;;7.68;5.43;;;12.60;99.90;;;;;;4976326;28;20034;-89
2022/04/26 11:07:35;;;;;;;6.45;5.15;;;12.60;99.90;;;;;;4978952;28;20380;-86
2022/04/26 11:10:01;;;;;;;7.15;5.45;;;12.70;99.90;;;;;;4978527;28;20026;-87
2022/04/26 11:12:28;;;;;;;10.50;8.73;;;12.70;99.90;;;;;;4978758;28;20517;-89
2022/04/26 11:15:00;;;;;;;7.63;5.60;;;12.80;99.90;;;;;;4977474;28;20030;-89
2022/04/26 11:17:27;;;;;;;6.45;5.68;;;12.90;99.90;;;;;;4979515;28;20054;-89
2022/04/26 11:19:55;;;;;;;6.13;5.45;;;13.00;99.90;;;;;;4978678;28;20038;-88
2022/04/26 11:22:22;;;;;;;7.93;5.60;;;13.10;99.90;;;;;;4979312;28;20030;-89
2022/04/26 11:30:24;;;;;;;6.82;5.60;;;13.70;99.90;;;;;;5004305;28;20053;-89
2022/04/26 11:32:50;;;;;;;6.60;5.63;;;13.90;99.90;;;;;;4977895;28;20027;-89
2022/04/26 11:35:20;;;;;;;6.55;5.60;;;14.20;99.90;;;;;;4975281;28;20026;-89
2022/04/26 11:37:47;;;;;;;9.43;5.63;;;14.50;99.90;;;;;;4996359;28;20030;-88
2022/04/26 11:40:28;;;;;;;6.63;5.45;;;14.50;99.90;;;;;;4973917;28;20053;-89
2022/04/26 11:42:57;;;;;;;6.60;5.25;;;14.50;99.90;;;;;;4977477;28;20026;-89
2022/04/26 11:45:30;;;;;;;6.75;5.82;;;14.50;99.90;;;;;;4977505;28;20049;-87
2022/04/26 11:47:57;;;;;;;7.07;5.68;;;14.50;99.90;;;;;;4969228;28;20050;-89
2022/04/26 11:50:28;;;;;;;6.20;5.53;;;14.50;99.90;;;;;;4975653;28;20045;-88
2022/04/26 11:53:00;;;;;;;6.07;5.25;;;14.50;99.90;;;;;;4980098;28;20081;-88
2022/04/26 11:55:29;;;;;;;5.97;5.35;;;14.30;99.90;;;;;;4976144;28;20023;-87
2022/04/26 11:58:18;;;;;;;17.58;11.45;;;14.30;99.90;;;;;;4978507;28;20030;-88
2022/04/26 12:01:02;;;;;;;87.32;38.75;;;14.00;99.90;;;;;;4972745;28;20022;-88
2022/04/26 12:03:31;;;;;;;26.23;14.98;;;13.70;99.90;;;;;;4980172;28;20030;-88
2022/04/26 12:06:02;;;;;;;12.15;9.13;;;13.50;99.90;;;;;;4990005;28;20022;-88
2022/04/26 12:08:35;;;;;;;10.15;7.75;;;13.40;99.90;;;;;;5019327;28;20010;-87
2022/04/26 12:11:18;;;;;;;10.82;7.80;;;13.40;99.90;;;;;;4998389;28;20534;-87
2022/04/26 12:13:44;;;;;;;11.98;7.85;;;13.30;99.90;;;;;;4995032;28;20033;-88
2022/04/26 12:16:21;;;;;;;11.50;9.40;;;13.30;99.90;;;;;;4974411;28;20487;-88
2022/04/26 12:18:57;;;;;;;10.25;8.05;;;13.30;99.90;;;;;;4969000;28;20076;-88
2022/04/26 12:21:27;;;;;;;9.23;7.55;;;13.30;99.90;;;;;;4995499;28;20022;-87
2022/04/26 12:24:16;;;;;;;7.93;7.13;;;13.30;99.90;;;;;;4960967;28;20031;-87
2022/04/26 12:26:54;;;;;;;9.30;7.32;;;13.20;99.90;;;;;;4958160;28;20022;-89
2022/04/26 12:29:24;;;;;;;7.57;6.15;;;13.10;99.90;;;;;;4977062;28;20037;-91
2022/04/26 12:31:50;;;;;;;7.72;5.60;;;13.00;99.90;;;;;;4977850;28;20149;-88
2022/04/26 12:34:20;;;;;;;5.65;4.55;;;12.80;99.90;;;;;;4976771;28;20046;-90
2022/04/26 12:36:49;;;;;;;5.88;4.63;;;12.70;99.90;;;;;;4972099;28;20138;-88
2022/04/26 12:39:14;;;;;;;5.63;4.13;;;12.70;99.90;;;;;;4979436;28;20029;-88
2022/04/26 12:41:51;;;;;;;5.10;4.60;;;12.70;99.90;;;;;;4993294;28;20010;-86
2022/04/26 12:44:17;;;;;;;6.13;3.95;;;12.70;99.90;;;;;;4996276;28;20026;-88
2022/04/26 12:52:43;;;;;;;6.70;5.30;;;13.60;99.90;;;;;;4996304;28;20033;-89
2022/04/26 12:55:08;;;;;;;5.57;4.88;;;13.80;99.90;;;;;;4981957;28;20052;-90
2022/04/26 12:57:52;;;;;;;6.32;4.88;;;14.00;99.90;;;;;;4981533;28;20022;-92
2022/04/26 13:00:19;;;;;;;9.18;6.85;;;14.20;99.90;;;;;;5013313;28;20019;-89
2022/04/26 13:02:49;;;;;;;4.10;3.75;;;14.40;99.90;;;;;;5002550;28;20026;-89
2022/04/26 13:05:15;;;;;;;4.75;4.13;;;14.50;99.90;;;;;;4977402;28;20045;-89
2022/04/26 13:07:42;;;;;;;5.50;4.28;;;14.60;99.90;;;;;;4977568;28;20061;-90
2022/04/26 13:10:08;;;;;;;4.82;4.25;;;14.50;99.90;;;;;;4973565;28;20427;-89
2022/04/26 13:12:34;;;;;;;6.30;4.65;;;14.40;99.90;;;;;;4977278;28;20022;-89
2022/04/26 13:15:00;;;;;;;5.13;3.90;;;14.40;99.90;;;;;;4971965;28;20031;-88
2022/04/26 13:17:26;;;;;;;5.55;4.05;;;14.40;99.90;;;;;;4976429;28;20037;-89
2022/04/26 13:19:52;;;;;;;5.85;4.20;;;14.50;99.90;;;;;;4978061;28;20113;-89
2022/04/26 13:22:18;;;;;;;4.97;4.15;;;14.50;99.90;;;;;;4975884;28;20118;-89
2022/04/26 13:24:44;;;;;;;5.45;4.82;;;14.50;99.90;;;;;;4973682;28;20062;-90
2022/04/26 13:27:11;;;;;;;7.13;5.07;;;14.50;99.90;;;;;;4965729;28;20045;-90
2022/04/26 13:29:37;;;;;;;7.82;5.78;;;14.60;99.90;;;;;;4976766;28;20030;-90
2022/04/26 13:32:04;;;;;;;6.68;5.53;;;14.60;99.90;;;;;;4967167;28;20027;-90
2022/04/26 13:34:30;;;;;;;7.70;6.20;;;14.60;99.90;;;;;;4962044;28;20027;-91
2022/04/26 13:36:55;;;;;;;6.95;5.88;;;14.60;99.90;;;;;;4976271;28;20161;-91
2022/04/26 13:39:21;;;;;;;8.38;6.43;;;14.50;99.90;;;;;;4975935;28;20030;-89
2022/04/26 13:41:50;;;;;;;9.07;5.80;;;14.50;99.90;;;;;;4979942;28;20023;-88
2022/04/26 13:44:19;;;;;;;8.25;5.55;;;14.60;99.90;;;;;;4975980;28;20034;-90
2022/04/26 13:46:46;;;;;;;6.00;5.30;;;14.50;99.90;;;;;;4981666;28;20030;-89
2022/04/26 13:49:12;;;;;;;6.55;5.50;;;14.50;99.90;;;;;;4989902;28;20026;-90
2022/04/26 13:51:37;;;;;;;6.47;5.45;;;14.50;99.90;;;;;;4970250;28;20054;-91
2022/04/26 13:54:03;;;;;;;8.63;5.70;;;14.50;99.90;;;;;;4976054;28;20058;-89
2022/04/26 13:56:29;;;;;;;9.00;7.05;;;14.40;99.90;;;;;;4976599;28;20126;-89
2022/04/26 13:58:55;;;;;;;11.02;7.38;;;14.40;99.90;;;;;;4978955;28;20498;-88
2022/04/26 14:01:22;;;;;;;9.23;7.13;;;14.50;99.90;;;;;;4982061;28;20090;-88
2022/04/26 14:03:49;;;;;;;7.47;6.40;;;14.50;99.90;;;;;;4963167;28;20026;-87
2022/04/26 14:06:18;;;;;;;6.60;5.30;;;14.60;99.90;;;;;;4988188;28;20015;-84
2022/04/26 14:08:48;;;;;;;8.20;5.47;;;14.60;99.90;;;;;;5013647;28;20010;-86
2022/04/26 14:11:17;;;;;;;5.68;4.95;;;14.70;99.90;;;;;;4991438;28;20123;-88
2022/04/26 14:21:55;;;;;;;6.18;5.47;;;14.40;99.90;;;;;;4995709;28;20088;-89
2022/04/26 14:24:21;;;;;;;6.82;5.25;;;14.30;99.90;;;;;;4976211;28;20026;-90
2022/04/26 14:26:46;;;;;;;6.93;5.90;;;14.30;99.90;;;;;;4971496;28;20063;-90
2022/04/26 14:29:13;;;;;;;6.85;5.32;;;14.20;99.90;;;;;;4980218;28;20038;-88
2022/04/26 14:31:38;;;;;;;5.88;4.57;;;14.10;99.90;;;;;;4999680;28;20026;-83
2022/04/26 14:34:04;;;;;;;9.25;5.68;;;14.10;99.90;;;;;;4976763;28;20034;-84
2022/04/26 14:36:29;;;;;;;6.53;5.90;;;14.10;99.90;;;;;;4985264;28;20018;-86
2022/04/26 14:38:55;;;;;;;6.15;4.72;;;14.10;99.90;;;;;;4982076;28;20110;-85
2022/04/26 14:41:21;;;;;;;6.05;4.75;;;14.00;99.90;;;;;;4974762;28;20041;-86
2022/04/26 14:43:46;;;;;;;5.85;4.75;;;13.90;99.90;;;;;;5001085;28;20030;-89
2022/04/26 14:46:12;;;;;;;4.88;3.85;;;13.90;99.90;;;;;;4981425;28;20042;-89
2022/04/26 14:48:38;;;;;;;4.25;3.85;;;14.00;99.90;;;;;;4977873;28;20030;-89
2022/04/26 20:53:26;;;;;;;8.90;6.13;;;10.50;99.90;;;;;;5037719;28;20049;-87
2022/04/26 20:55:53;;;;;;;8.48;5.70;;;10.60;99.90;;;;;;5013145;28;20148;-86
2022/04/26 20:58:19;;;;;;;7.45;5.88;;;10.50;99.90;;;;;;5010869;28;20049;-87
2022/04/26 21:00:44;;;;;;;6.47;5.45;;;10.60;99.90;;;;;;5000112;28;20511;-85
2022/04/26 21:03:10;;;;;;;7.85;5.90;;;10.60;99.90;;;;;;4994984;28;20021;-86
2022/04/26 21:05:38;;;;;;;7.88;5.30;;;10.60;99.90;;;;;;4993611;28;20524;-87
2022/04/26 21:08:04;;;;;;;6.07;5.38;;;10.60;99.90;;;;;;5002733;28;20030;-86
2022/04/26 21:10:30;;;;;;;5.88;5.28;;;10.60;99.90;;;;;;5009312;28;20029;-86
2022/04/26 21:15:40;;;;;;;7.30;5.55;;;10.60;99.90;;;;;;5007786;28;20048;-86
2022/04/26 21:18:05;;;;;;;7.32;6.05;;;10.60;99.90;;;;;;5010216;28;22134;-86
2022/04/26 21:20:31;;;;;;;5.75;5.20;;;10.60;99.90;;;;;;4990697;28;20026;-87
2022/04/26 21:22:57;;;;;;;7.75;6.22;;;10.60;99.90;;;;;;4996398;28;20018;-86
2022/04/26 21:25:23;;;;;;;8.60;6.47;;;10.60;99.90;;;;;;5007230;28;20030;-87
2022/04/26 21:27:48;;;;;;;6.85;6.05;;;10.60;99.90;;;;;;4995806;28;20030;-87
2022/04/26 21:30:14;;;;;;;7.63;6.60;;;10.60;99.90;;;;;;4994580;28;20030;-87
2022/04/26 21:32:40;;;;;;;9.38;6.63;;;10.50;99.90;;;;;;4993875;28;20364;-86
2022/04/26 21:35:07;;;;;;;9.65;7.70;;;10.60;99.90;;;;;;4994977;28;20037;-86
2022/04/26 21:37:32;;;;;;;8.35;7.28;;;10.50;99.90;;;;;;4988211;28;20021;-87
2022/04/26 21:39:58;;;;;;;13.68;8.48;;;10.60;99.90;;;;;;5013377;28;20022;-88
2022/04/26 21:42:25;;;;;;;11.55;7.05;;;10.50;99.90;;;;;;4996110;28;20064;-86
2022/04/26 21:44:51;;;;;;;9.73;7.63;;;10.50;99.90;;;;;;4994470;28;20054;-87
2022/04/26 21:47:17;;;;;;;10.25;8.13;;;10.40;99.90;;;;;;5012267;28;20045;-87
2022/04/26 21:52:31;;;;;;;9.60;7.50;;;10.30;99.90;;;;;;5010951;28;20117;-86
2022/04/26 21:54:56;;;;;;;9.20;7.70;;;10.20;99.90;;;;;;5000173;28;20523;-87
2022/04/26 21:57:22;;;;;;;11.05;8.05;;;10.20;99.90;;;;;;5000810;28;20050;-87
2022/04/26 21:59:47;;;;;;;12.13;8.57;;;10.10;99.90;;;;;;5001935;28;20045;-87
2022/04/26 22:02:14;;;;;;;10.10;8.18;;;10.10;99.90;;;;;;4999638;28;20026;-86
2022/04/26 22:04:39;;;;;;;12.65;9.02;;;10.00;99.90;;;;;;5001628;28;20116;-88
2022/04/26 22:07:05;;;;;;;11.75;8.25;;;10.00;99.90;;;;;;4998643;28;20181;-87
2022/04/26 22:09:32;;;;;;;11.77;9.02;;;10.00;99.90;;;;;;5009500;28;20029;-85
2022/04/26 22:11:59;;;;;;;12.27;9.00;;;10.00;99.90;;;;;;5001142;28;20034;-86
2022/04/26 22:14:24;;;;;;;12.23;9.45;;;10.00;99.90;;;;;;5001742;28;20022;-86
2022/04/26 22:16:50;;;;;;;12.20;9.45;;;10.00;99.90;;;;;;5018651;28;20155;-87
2022/04/26 22:19:15;;;;;;;13.63;9.02;;;10.00;99.90;;;;;;5000372;28;20076;-87
2022/04/26 22:21:42;;;;;;;13.23;9.23;;;10.00;99.90;;;;;;5001694;28;20037;-87
2022/04/26 22:24:08;;;;;;;11.35;8.65;;;10.00;99.90;;;;;;4997232;28;20041;-86
2022/04/26 22:26:34;;;;;;;10.38;8.77;;;10.00;99.90;;;;;;4991743;28;20022;-87
2022/04/26 22:28:59;;;;;;;12.40;8.80;;;10.00;99.90;;;;;;5001136;28;20037;-87
2022/04/26 22:31:26;;;;;;;13.25;9.90;;;10.00;99.90;;;;;;4998509;28;20686;-87
2022/04/26 22:33:52;;;;;;;12.02;9.48;;;10.00;99.90;;;;;;5000681;28;20034;-86
2022/04/26 22:36:18;;;;;;;13.55;9.45;;;10.00;99.90;;;;;;5000601;28;20101;-87
2022/04/26 22:38:44;;;;;;;11.02;8.70;;;10.00;99.90;;;;;;5017102;28;20026;-86
2022/04/26 22:41:10;;;;;;;12.93;9.80;;;10.10;99.90;;;;;;4999233;28;20022;-86
2022/04/26 22:43:35;;;;;;;14.32;9.88;;;10.00;99.90;;;;;;4999039;28;20056;-85
2022/04/26 22:46:01;;;;;;;11.45;8.93;;;10.10;99.90;;;;;;4999001;28;20446;-86
2022/04/26 22:48:26;;;;;;;13.20;9.77;;;10.10;99.90;;;;;;5015636;28;20575;-87
2022/04/26 22:50:52;;;;;;;13.77;10.07;;;10.10;99.90;;;;;;4996972;28;20081;-87
2022/04/26 22:53:17;;;;;;;11.32;9.13;;;10.10;99.90;;;;;;5008363;28;20062;-87
2022/04/26 22:55:43;;;;;;;12.48;8.95;;;10.00;99.90;;;;;;5001025;28;20037;-87
2022/04/26 22:58:08;;;;;;;12.38;9.38;;;10.00;99.90;;;;;;5001022;28;20026;-87
2022/04/26 23:00:34;;;;;;;12.82;9.27;;;9.90;99.90;;;;;;5005750;28;20029;-87
2022/04/26 23:03:00;;;;;;;12.75;9.88;;;9.90;99.90;;;;;;4995467;28;20022;-86
2022/04/26 23:05:25;;;;;;;13.77;10.00;;;9.90;99.90;;;;;;4996592;28;20053;-85
2022/04/26 23:07:51;;;;;;;12.32;9.30;;;9.80;99.90;;;;;;4997823;28;20033;-86
2022/04/26 23:10:16;;;;;;;13.18;9.55;;;9.80;99.90;;;;;;5014370;28;20026;-86
2022/04/26 23:12:42;;;;;;;12.02;9.48;;;9.80;99.90;;;;;;5014809;28;20526;-87
2022/04/26 23:15:07;;;;;;;13.20;9.20;;;9.80;99.90;;;;;;4998708;28;20416;-86
2022/04/26 23:17:33;;;;;;;13.02;9.55;;;9.70;99.90;;;;;;5015265;28;20362;-87
2022/04/26 23:19:59;;;;;;;11.18;8.63;;;9.70;99.90;;;;;;4994259;28;20026;-86
2022/04/26 23:22:24;;;;;;;12.80;9.55;;;9.70;99.90;;;;;;4997053;28;20048;-86
2022/04/26 23:24:50;;;;;;;13.57;9.48;;;9.70;99.90;;;;;;4997839;28;20117;-87
2022/04/26 23:27:17;;;;;;;15.23;9.50;;;9.70;99.90;;;;;;4998819;28;20033;-87
2022/04/26 23:29:42;;;;;;;13.35;9.75;;;9.70;99.90;;;;;;4996725;28;20050;-85
2022/04/26 23:32:10;;;;;;;12.68;9.25;;;9.70;99.90;;;;;;4995938;28;20056;-86
2022/04/26 23:37:20;;;;;;;13.20;9.52;;;9.70;99.90;;;;;;5017192;28;20095;-87
2022/04/26 23:39:45;;;;;;;13.32;9.23;;;9.80;99.90;;;;;;4998228;28;20246;-86
2022/04/26 23:42:11;;;;;;;14.10;10.50;;;9.80;99.90;;;;;;4995527;28;20023;-86
2022/04/26 23:44:37;;;;;;;17.33;11.68;;;9.80;99.90;;;;;;4993764;28;20023;-87
2022/04/26 23:47:03;;;;;;;16.52;11.25;;;9.80;99.90;;;;;;4990083;28;20341;-86
2022/04/26 23:49:28;;;;;;;15.52;10.85;;;9.90;99.90;;;;;;4991782;28;20088;-87
2022/04/26 23:54:38;;;;;;;14.30;9.95;;;9.90;99.90;;;;;;5011549;28;20511;-86
2022/04/26 23:57:04;;;;;;;12.70;9.07;;;9.80;99.90;;;;;;4994707;28;20026;-88
2022/04/26 23:59:29;;;;;;;13.45;9.50;;;9.80;99.90;;;;;;5005881;28;20056;-85
